Terminal Aerodrome Forecast
Issued by NWS

Home | Current Version | Previous Version | Text Only | Print | Product List | Glossary On
Versions: 1 2 3 4 5 6 7 8 9 10 11 12 13 14 15 16
000
FTUS44 KSJT 281100
TAFJCT
TAF
KJCT 281129Z 2812/0112 08007KT 2SM -FZDZ BR OVC005
     FM281500 13006KT 3SM -DZ BR OVC005
     FM281800 15010KT 6SM BR OVC010
     FM010300 10008KT 3SM BR OVC008=

USA.gov is the U.S. government's official web portal to all federal, state and local government web resources and services.